RJSC

Details ICAO RJSC (GAJ)
Name YAMAGATA
Region Japan
Timezone Asia/Tokyo (UTC+9.0)
Plans Departing 3
Arriving 12
Stats Elevation 353 ft / 108 m (AMSL)
Location 38.411895° 140.371330°
Runways 1
Magnetic Variation 8.259° W
Sunrise 2017-12-13 21:48:58 UTC / 2017-12-14 06:48:58 Local
Sunset 2017-12-14 07:19:51 UTC / 2017-12-14 16:19:51 Local
Advertisement - Login to hide

Runways

ID Width Length Bearing (true) Bearing (mag) Surface Threshold Offset Overrun Length
01 150 ft / 46 m 6,574 ft / 2,004 m 6.56° 14.82° Asphalt 0 ft / 0 m 200 ft / 61 m
19 150 ft / 46 m 6,574 ft / 2,004 m 186.56° 194.82° Asphalt 0 ft / 0 m 200 ft / 61 m

Approach Navaids

Runway Type Ident Frequency Range Bearing (true) Bearing (mag) Slope Elevation
01 Localiser IYT 110.10 MHz 18 nm / 33 km 6.56° 14.82° - 353 ft / 108 m (AMSL)
01 Glidescope IYT 110.10 MHz 10 nm / 19 km 6.56° 14.82° 3.00° 362 ft / 110 m (AMSL)
01 DME IYT 110.10 MHz 18 nm / 33 km - - - 362 ft / 110 m (AMSL)

Map

Weather


0- 5 10 15 20 25 30 35+ Temperature / ° C

Clouds and Precipitation
Forecast for 2017-12-14 00:00 UTC. Updated 2 hours ago

Ground ~20,000 ft ~40,000 ft Winds

METAR

RJSC 140000Z 00000KT 9999 -SHSN FEW005 SCT010 BKN030 M01/M02 Q1021

TAF

Not found
Warning: Do not use this data for real-world aviation or navigation. No guarantee of current accuracy is given.